Robesonia, PA (19551)

1:40 AM EST on March 05, 2015 (GMT -0500)
ProAudioillusions | Change Station
CLOSE
Current Station
Personal Weather Station
Location: Robesonia, PA
Elevation: 495 ft
Nearby Weather Stations
Active Advisory: Winter Storm Warning

Elev 495 ft 40.35 °N, 76.14 °W | Updated 2 seconds ago

Ice Pellets
Ice Pellets
32.5 °F
Feels Like 32 °F
N
1.2
Wind Variable Wind from West
Gusts 4.5 mph

Today
High -- | Low -- °F
--% Chance of Precip.
Yesterday
High -- | Low -- °F
Precip. -- in
6:32 AM 6:00 PM
Full, 100% visible
Pressure 29.96 in
Visibility 6.0 miles
Clouds Overcast 5500 ft
Windchill 32 °F
Dew Point 31 °F
Humidity 93%
Rainfall in
Snow Depth Not available.
UV 0 out of 12
Pollen .50 out of 12
Air Quality Not available.
Flu Activity Not available.
METAR KRDG 050554Z AUTO 28006KT 6SM -RA BR OVC055 02/01 A2994 RMK AO2 SLP145 P0005 60024 T00170006 10039 20017 55002

More Conditions Fewer Conditions

Pressure 29.96 in
Visibility 6.0 miles
Clouds Overcast 5500 ft
Windchill 32 °F
Dew Point 31 °F
Humidity 93%
Rainfall in
Snow Depth Not available.
UV 0 out of 12
Pollen .50 out of 12
Air Quality Not available.
Flu Activity Not available.
METAR KRDG 050554Z AUTO 28006KT 6SM -RA BR OVC055 02/01 A2994 RMK AO2 SLP145 P0005 60024 T00170006 10039 20017 55002

More Conditions Fewer Conditions

10-Day Weather Forecast

Almanac

Astronomy

Mar. 05, 2015 Rise Set
Actual Time
Civil Twilight
Nautical Twilight
Astronomical Twilight
Moon
Length of Visible Light
Length of Day
Tomorrow will be .
, % of the Moon is Illuminated

Today's Extremes

State Highs State Lows

Community

WunderPhotos

Upload Photos

1,802,689 photos uploaded!

WunderBlogs® & News

Nearby

Air Quality

  Air Quality AQ Index Pollutant
Not available.

Snow Depth

Station Depth Elevation

Earthquake Activity

City Distance Mag. Time & Date
Minimum magnitude displayed is 2.5.

Coastal Water Temperatures

Place Temperature

Nearby Weather Stations

Winter Storm Warning
Statement as of 8:34 PM EST on March 04, 2015

... Winter Storm Warning remains in effect until 7 PM EST
Thursday...

* locations... portions of eastern Pennsylvania and central New
Jersey.

* Hazard types... a period of sleet then long duration snow.

* Snow accumulations... generally 4 to 8 inches.

* Timing... sleet developing near midnight then changing to snow by
3 am... continuing through early Thursday afternoon possibly
heavy at times.

* Temperatures... falling to between 28 and 32 at daybreak Thursday
then falling through the 20s during the daylight hours.

* Wind... becoming north and gusting to 20 mph during the day
Thursday.

* Visibility... may lower briefly to one half mile during Thursday
morning or midday.

* Impacts... widespread and substantial impacts on travel are
expected Thursday, especially for the Thursday morning commute.

Precautionary/preparedness actions...

This Winter Storm Warning means that significant amounts of snow
are expected. The snow will make travel very hazardous or
impossible.